createdAt,value
2022-09-17T00:01:15.134Z,98979.81
2022-09-17T00:03:43.046Z,98987.31
2022-09-17T00:06:12.234Z,98980.34
2022-09-17T00:08:40.848Z,98986.41
2022-09-17T00:11:10.655Z,98988.41
2022-09-17T00:13:38.100Z,98983.88
2022-09-17T00:16:05.748Z,98977.69
2022-09-17T00:18:33.629Z,98978.38
2022-09-17T00:21:00.976Z,98981.84
2022-09-17T00:23:28.430Z,98974.94
2022-09-17T00:25:56.134Z,98970.19
2022-09-17T00:28:23.505Z,98968.16
2022-09-17T00:30:51.007Z,98968.25
2022-09-17T00:33:20.129Z,98966.13
2022-09-17T00:35:59.742Z,98968.00
2022-09-17T00:38:28.028Z,98957.00
2022-09-17T00:40:55.782Z,98945.06
2022-09-17T00:43:53.412Z,98938.53
2022-09-17T00:46:40.779Z,98935.72
2022-09-17T00:49:13.432Z,98930.81
2022-09-17T00:51:46.798Z,98933.81
2022-09-17T00:54:15.046Z,98926.16
2022-09-17T00:56:43.903Z,98924.66
2022-09-17T00:59:11.531Z,98925.09
2022-09-17T01:01:39.084Z,98928.72
2022-09-17T01:04:07.102Z,98923.47
2022-09-17T01:06:53.948Z,98921.00
2022-09-17T01:09:25.291Z,98917.25
2022-09-17T01:11:55.557Z,98919.63
2022-09-17T01:14:57.655Z,98922.16
2022-09-17T01:17:49.515Z,98920.03
2022-09-17T01:20:45.358Z,98914.81
2022-09-17T01:23:24.686Z,98918.59
2022-09-17T01:26:17.197Z,98930.53
2022-09-17T01:28:57.170Z,98940.00
2022-09-17T01:31:42.502Z,98945.88
2022-09-17T01:34:12.715Z,98945.72
2022-09-17T01:37:05.027Z,98949.47
2022-09-17T01:39:38.502Z,98953.03
2022-09-17T01:42:09.873Z,98965.81
2022-09-17T01:45:15.525Z,98968.78
2022-09-17T01:47:55.131Z,98969.88
2022-09-17T01:50:26.893Z,98968.97
2022-09-17T01:52:55.853Z,98977.59
2022-09-17T01:55:28.195Z,98971.47
2022-09-17T01:58:02.965Z,98960.06
2022-09-17T02:00:30.497Z,98972.81
2022-09-17T02:03:08.317Z,98968.31
2022-09-17T02:05:47.334Z,98960.06
2022-09-17T02:08:15.831Z,98960.84
2022-09-17T02:10:52.561Z,98950.22
2022-09-17T02:13:30.004Z,98951.34
2022-09-17T02:16:03.231Z,98947.19
2022-09-17T02:18:38.499Z,98942.50
2022-09-17T02:21:16.741Z,98944.34
2022-09-17T02:23:57.977Z,98949.22
2022-09-17T02:26:26.434Z,98942.72
2022-09-17T02:28:57.342Z,98943.22
2022-09-17T02:31:24.750Z,98946.16
2022-09-17T02:33:55.058Z,98936.81
2022-09-17T02:36:23.831Z,98939.56
2022-09-17T02:38:59.495Z,98924.69
2022-09-17T02:41:39.036Z,98923.72
2022-09-17T02:44:22.188Z,98927.13
2022-09-17T02:47:14.510Z,98921.56
2022-09-17T02:50:06.455Z,98921.56
2022-09-17T02:52:49.358Z,98914.88
2022-09-17T02:55:20.205Z,98908.09
2022-09-17T02:57:56.973Z,98909.75
2022-09-17T03:00:26.690Z,98910.06
2022-09-17T03:02:58.962Z,98898.53
2022-09-17T03:05:28.017Z,98898.06
2022-09-17T03:07:59.402Z,98894.91
2022-09-17T03:10:33.480Z,98885.47
2022-09-17T03:13:01.112Z,98875.63
2022-09-17T03:15:28.434Z,98883.06
2022-09-17T03:17:55.859Z,98865.50
2022-09-17T03:20:23.774Z,98862.09
2022-09-17T03:22:52.081Z,98845.97
2022-09-17T03:25:19.407Z,98834.00
2022-09-17T03:27:48.306Z,98838.53
2022-09-17T03:30:15.703Z,98830.88
2022-09-17T03:32:43.022Z,98829.53
2022-09-17T03:35:10.616Z,98812.75
2022-09-17T03:37:38.114Z,98803.38
2022-09-17T03:40:06.187Z,98792.81
2022-09-17T03:42:33.800Z,98801.94
2022-09-17T03:45:01.206Z,98810.88
2022-09-17T03:47:28.553Z,98805.63
2022-09-17T03:49:56.203Z,98807.88
2022-09-17T03:52:23.562Z,98808.59
2022-09-17T03:54:50.922Z,98818.81
2022-09-17T03:57:18.540Z,98808.12
2022-09-17T03:59:45.888Z,98815.53
2022-09-17T04:02:13.350Z,98822.22
2022-09-17T04:04:41.012Z,98829.31
2022-09-17T04:07:08.392Z,98834.78
2022-09-17T04:09:35.739Z,98842.31
2022-09-17T04:12:03.623Z,98838.16
2022-09-17T04:14:31.007Z,98839.50
2022-09-17T04:16:59.126Z,98823.94
2022-09-17T04:19:26.744Z,98822.19
2022-09-17T04:21:54.124Z,98822.63
2022-09-17T04:24:21.489Z,98815.91
2022-09-17T04:26:49.092Z,98820.31
2022-09-17T04:29:16.408Z,98809.41
2022-09-17T04:31:43.818Z,98801.81
2022-09-17T04:34:11.454Z,98807.88
2022-09-17T04:36:38.815Z,98810.38
2022-09-17T04:39:06.246Z,98804.09
2022-09-17T04:41:33.897Z,98797.31
2022-09-17T04:44:01.313Z,98796.06
2022-09-17T04:46:28.720Z,98794.69
2022-09-17T04:48:56.645Z,98789.25
2022-09-17T04:51:23.963Z,98795.78
2022-09-17T04:53:51.331Z,98801.47
2022-09-17T04:56:18.936Z,98793.34
2022-09-17T04:58:46.280Z,98797.63
2022-09-17T05:01:15.220Z,98792.62
2022-09-17T05:03:43.159Z,98791.72
2022-09-17T05:06:10.778Z,98785.53
2022-09-17T05:08:38.097Z,98783.19
2022-09-17T05:11:05.703Z,98785.69
2022-09-17T05:13:33.050Z,98799.28
2022-09-17T05:16:00.473Z,98803.19
2022-09-17T05:18:28.149Z,98815.53
2022-09-17T05:20:55.466Z,98816.94
2022-09-17T05:23:22.851Z,98817.38
2022-09-17T05:25:50.697Z,98823.94
2022-09-17T05:28:18.031Z,98832.44
2022-09-17T05:30:45.368Z,98832.12
2022-09-17T05:33:13.013Z,98837.72
2022-09-17T05:35:40.706Z,98848.09
2022-09-17T05:38:08.182Z,98855.56
2022-09-17T05:40:37.398Z,98849.09
2022-09-17T05:43:06.868Z,98842.28
2022-09-17T05:45:35.135Z,98848.38
2022-09-17T05:48:04.183Z,98860.00
2022-09-17T05:50:32.021Z,98865.75
2022-09-17T05:53:07.461Z,98860.00
2022-09-17T05:55:35.298Z,98862.34
2022-09-17T05:58:12.671Z,98866.44
2022-09-17T06:00:41.205Z,98873.53
2022-09-17T06:03:10.498Z,98887.34
2022-09-17T06:05:37.915Z,98873.78
2022-09-17T06:08:05.791Z,98884.44
2022-09-17T06:10:37.265Z,98886.44
2022-09-17T06:13:04.671Z,98882.50
2022-09-17T06:15:32.023Z,98871.50
2022-09-17T06:17:59.659Z,98857.78
2022-09-17T06:20:27.106Z,98868.84
2022-09-17T06:22:58.070Z,98880.06
2022-09-17T06:25:26.587Z,98879.78
2022-09-17T06:27:53.945Z,98888.72
2022-09-17T06:30:21.344Z,98882.09
2022-09-17T06:32:49.014Z,98881.81
2022-09-17T06:35:16.398Z,98888.84
2022-09-17T06:37:43.747Z,98887.00
2022-09-17T06:40:11.398Z,98885.59
2022-09-17T06:42:38.787Z,98890.56
2022-09-17T06:45:10.261Z,98893.16
2022-09-17T06:47:40.769Z,98894.31
2022-09-17T06:50:08.249Z,98905.50
2022-09-17T06:52:35.572Z,98908.44
2022-09-17T06:55:03.275Z,98907.12
2022-09-17T06:57:30.662Z,98907.56
2022-09-17T06:59:58.028Z,98902.84
2022-09-17T07:02:25.815Z,98905.53
2022-09-17T07:04:55.198Z,98895.63
2022-09-17T07:07:22.555Z,98898.22
2022-09-17T07:09:50.155Z,98901.56
2022-09-17T07:12:17.534Z,98910.13
2022-09-17T07:14:45.122Z,98908.91
2022-09-17T07:17:12.770Z,98896.59
2022-09-17T07:19:40.174Z,98889.06
2022-09-17T07:22:08.228Z,98883.25
2022-09-17T07:24:35.857Z,98884.31
2022-09-17T07:27:03.208Z,98891.19
2022-09-17T07:29:31.560Z,98886.16
2022-09-17T07:31:59.785Z,98891.19
2022-09-17T07:34:29.091Z,98896.72
2022-09-17T07:36:56.496Z,98900.41
2022-09-17T07:39:24.265Z,98893.88
2022-09-17T07:41:51.977Z,98903.87
2022-09-17T07:44:19.306Z,98905.69
2022-09-17T07:46:46.949Z,98912.28
2022-09-17T07:49:14.388Z,98912.09
2022-09-17T07:51:41.736Z,98915.62
2022-09-17T07:54:09.328Z,98906.00
2022-09-17T07:56:36.666Z,98903.22
2022-09-17T07:59:04.374Z,98904.37
2022-09-17T08:01:34.241Z,98906.72
2022-09-17T08:04:02.513Z,98911.91
2022-09-17T08:06:30.084Z,98918.37
2022-09-17T08:08:58.931Z,98933.19
2022-09-17T08:14:16.480Z,98953.00
2022-09-17T08:16:46.426Z,98949.50
2022-09-17T08:19:13.834Z,98950.44
2022-09-17T08:21:41.243Z,98941.72
2022-09-17T08:24:08.935Z,98952.19
2022-09-17T08:26:36.269Z,98957.31
2022-09-17T08:29:03.628Z,98956.13
2022-09-17T08:31:33.446Z,98956.47
2022-09-17T08:34:01.420Z,98955.38
2022-09-17T08:36:28.788Z,98957.59
2022-09-17T08:38:56.805Z,98958.47
2022-09-17T08:41:34.161Z,98957.66
2022-09-17T08:44:12.862Z,98947.31
2022-09-17T08:46:53.572Z,98925.87
2022-09-17T08:49:24.136Z,98931.84
2022-09-17T08:51:53.312Z,98922.97
2022-09-17T08:54:56.247Z,98926.06
2022-09-17T08:57:37.373Z,98928.25
2022-09-17T09:00:13.314Z,98938.69
2022-09-17T09:02:58.964Z,98942.06
2022-09-17T09:05:43.803Z,98950.69
2022-09-17T09:08:19.359Z,98946.06
2022-09-17T09:10:55.413Z,98942.34
2022-09-17T09:13:25.638Z,98946.69
2022-09-17T09:16:01.471Z,98947.16
2022-09-17T09:18:34.853Z,98940.41
2022-09-17T09:21:11.547Z,98943.75
2022-09-17T09:23:46.143Z,98940.41
2022-09-17T09:26:19.032Z,98941.72
2022-09-17T09:29:17.964Z,98938.22
2022-09-17T09:32:15.480Z,98927.53
2022-09-17T09:34:44.173Z,98943.81
2022-09-17T09:37:22.122Z,98937.03
2022-09-17T09:39:51.444Z,98941.94
2022-09-17T09:42:32.610Z,98948.28
2022-09-17T09:45:05.159Z,98952.44
2022-09-17T09:48:06.842Z,98947.91
2022-09-17T09:51:02.270Z,98942.81
2022-09-17T09:53:51.768Z,98940.75
2022-09-17T09:56:32.674Z,98952.28
2022-09-17T09:59:01.357Z,98950.63
2022-09-17T10:01:30.296Z,98961.88
2022-09-17T10:03:58.994Z,98961.50
2022-09-17T10:06:29.787Z,98950.16
2022-09-17T10:08:57.161Z,98939.31
2022-09-17T10:11:29.574Z,98939.09
2022-09-17T10:14:15.387Z,98931.69
2022-09-17T10:16:43.028Z,98933.31
2022-09-17T10:19:14.547Z,98939.63
2022-09-17T10:21:42.991Z,98928.84
2022-09-17T10:24:19.548Z,98919.22
2022-09-17T10:26:46.952Z,98917.66
2022-09-17T10:29:17.227Z,98889.72
2022-09-17T10:31:53.141Z,98883.91
2022-09-17T10:34:26.256Z,98900.50
2022-09-17T10:36:56.113Z,98911.59
2022-09-17T10:39:26.740Z,98913.22
2022-09-17T10:41:59.291Z,98918.53
2022-09-17T10:44:32.538Z,98901.72
2022-09-17T10:47:23.236Z,98899.19
2022-09-17T10:49:57.662Z,98888.34
2022-09-17T10:52:27.647Z,98866.41
2022-09-17T10:55:08.288Z,98863.16
2022-09-17T10:58:05.975Z,98842.13
2022-09-17T11:01:01.581Z,98835.34
2022-09-17T11:03:50.590Z,98845.66
2022-09-17T11:06:56.733Z,98867.28
2022-09-17T11:09:27.023Z,98880.19
2022-09-17T11:11:57.539Z,98899.84
2022-09-17T11:14:24.879Z,98900.75
2022-09-17T11:17:08.122Z,98877.06
2022-09-17T11:19:45.452Z,98875.31
2022-09-17T11:22:18.638Z,98896.69
2022-09-17T11:25:40.173Z,98916.97
2022-09-17T11:28:47.202Z,98923.81
2022-09-17T11:31:21.786Z,98916.81
2022-09-17T11:34:18.521Z,98893.06
2022-09-17T11:36:56.774Z,98882.25
2022-09-17T11:39:33.514Z,98878.59
2022-09-17T11:42:03.594Z,98880.31
2022-09-17T11:44:30.977Z,98887.19
2022-09-17T11:47:14.271Z,98869.34
2022-09-17T11:49:56.524Z,98857.50
2022-09-17T11:52:27.534Z,98847.06
2022-09-17T11:55:18.363Z,98833.59
2022-09-17T11:57:47.022Z,98813.84
2022-09-17T12:00:22.682Z,98813.38
2022-09-17T12:03:23.919Z,98801.09
2022-09-17T12:06:00.156Z,98790.09
2022-09-17T12:09:04.932Z,98789.56
2022-09-17T12:11:40.897Z,98783.28
2022-09-17T12:14:16.421Z,98789.94
2022-09-17T12:16:45.487Z,98779.34
2022-09-17T12:19:31.428Z,98772.97
2022-09-17T12:22:08.009Z,98767.38
2022-09-17T12:24:35.637Z,98762.50
2022-09-17T12:27:41.282Z,98759.91
2022-09-17T12:30:11.922Z,98751.81
2022-09-17T12:33:00.852Z,98746.56
2022-09-17T12:36:03.975Z,98755.81
2022-09-17T12:38:46.942Z,98749.75
2022-09-17T12:41:33.622Z,98740.50
2022-09-17T12:44:29.879Z,98723.28
2022-09-17T12:47:19.312Z,98730.47
2022-09-17T12:49:54.540Z,98738.56
2022-09-17T12:52:45.676Z,98751.59
2022-09-17T12:55:31.645Z,98754.34
2022-09-17T12:58:12.439Z,98760.75
2022-09-17T13:00:44.249Z,98758.09
2022-09-17T13:03:29.213Z,98766.59
2022-09-17T13:06:27.609Z,98772.34
2022-09-17T13:09:05.389Z,98764.88
2022-09-17T13:11:52.723Z,98753.19
2022-09-17T13:14:33.137Z,98749.16
2022-09-17T13:17:31.024Z,98726.13
2022-09-17T13:20:15.880Z,98727.19
2022-09-17T13:22:45.794Z,98726.91
2022-09-17T13:25:15.687Z,98731.78
2022-09-17T13:27:44.535Z,98718.13
2022-09-17T13:30:15.175Z,98710.12
2022-09-17T13:32:44.186Z,98719.16
2022-09-17T13:35:17.077Z,98700.13
2022-09-17T13:37:44.549Z,98699.56
2022-09-17T13:40:26.963Z,98694.47
2022-09-17T13:42:56.696Z,98700.09
2022-09-17T13:45:25.209Z,98697.09
2022-09-17T13:48:07.989Z,98722.28
2022-09-17T13:50:43.300Z,98707.50
2022-09-17T13:53:13.550Z,98703.38
2022-09-17T13:55:56.977Z,98694.44
2022-09-17T13:58:32.405Z,98709.50
2022-09-17T14:01:01.333Z,98715.78
2022-09-17T14:03:28.927Z,98718.63
2022-09-17T14:06:21.102Z,98733.81
2022-09-17T14:08:50.420Z,98737.34
2022-09-17T14:11:24.093Z,98737.03
2022-09-17T14:13:55.200Z,98739.47
2022-09-17T14:16:33.911Z,98739.12
2022-09-17T14:19:17.155Z,98737.59
2022-09-17T14:21:59.595Z,98736.37
2022-09-17T14:24:37.520Z,98745.31
2022-09-17T14:27:23.535Z,98752.34
2022-09-17T14:30:01.743Z,98747.75
2022-09-17T14:32:39.400Z,98758.25
2022-09-17T14:35:19.944Z,98750.16
2022-09-17T14:37:57.681Z,98754.69
2022-09-17T14:40:26.293Z,98753.41
2022-09-17T14:42:56.575Z,98764.91
2022-09-17T14:45:37.342Z,98766.53
2022-09-17T14:48:28.197Z,98759.66
2022-09-17T14:51:17.600Z,98754.31
2022-09-17T14:53:46.548Z,98743.97
2022-09-17T14:56:19.598Z,98747.62
2022-09-17T14:58:52.811Z,98745.38
2022-09-17T15:01:30.597Z,98737.06
2022-09-17T15:04:13.367Z,98744.19
2022-09-17T15:06:41.188Z,98750.16
2022-09-17T15:09:27.814Z,98748.75
2022-09-17T15:11:58.709Z,98748.84
2022-09-17T15:14:30.974Z,98757.44
2022-09-17T15:16:59.990Z,98764.00
2022-09-17T15:19:36.033Z,98754.72
2022-09-17T15:22:26.105Z,98749.88
2022-09-17T15:25:08.536Z,98734.56
2022-09-17T15:27:38.059Z,98736.66
2022-09-17T15:30:26.262Z,98713.03
2022-09-17T15:32:55.630Z,98706.37
2022-09-17T15:35:33.214Z,98711.84
2022-09-17T15:38:22.239Z,98722.94
2022-09-17T15:40:51.765Z,98721.88
2022-09-17T15:43:27.309Z,98713.16
2022-09-17T15:45:56.230Z,98709.59
2022-09-17T15:48:34.408Z,98706.75
2022-09-17T15:51:03.743Z,98691.97
2022-09-17T15:53:32.609Z,98690.41
2022-09-17T15:56:05.770Z,98700.03
2022-09-17T15:58:42.516Z,98707.88
2022-09-17T16:01:16.074Z,98711.97
2022-09-17T16:03:43.715Z,98700.72
2022-09-17T16:06:19.859Z,98693.78
2022-09-17T16:08:53.410Z,98698.41
2022-09-17T16:11:22.639Z,98696.66
2022-09-17T16:13:51.367Z,98698.66
2022-09-17T16:16:23.970Z,98690.56
2022-09-17T16:18:51.666Z,98685.47
2022-09-17T16:21:19.903Z,98676.03
2022-09-17T16:23:47.246Z,98672.75
2022-09-17T16:26:20.015Z,98673.28
2022-09-17T16:28:48.936Z,98670.72
2022-09-17T16:31:16.594Z,98666.63
2022-09-17T16:33:44.117Z,98664.31
2022-09-17T16:36:11.524Z,98665.88
2022-09-17T16:38:40.533Z,98667.16
2022-09-17T16:41:07.924Z,98664.12
2022-09-17T16:43:35.540Z,98657.84
2022-09-17T16:46:12.329Z,98663.22
2022-09-17T16:48:41.115Z,98673.81
2022-09-17T16:51:12.886Z,98683.56
2022-09-17T16:53:40.687Z,98680.56
2022-09-17T16:56:09.271Z,98673.75
2022-09-17T16:58:37.057Z,98674.84
2022-09-17T17:01:09.303Z,98677.81
2022-09-17T17:03:36.991Z,98680.41
2022-09-17T17:06:04.533Z,98689.75
2022-09-17T17:08:32.822Z,98704.22
2022-09-17T17:11:01.039Z,98700.56
2022-09-17T17:13:28.838Z,98693.06
2022-09-17T17:15:56.243Z,98679.50
2022-09-17T17:18:24.587Z,98675.81
2022-09-17T17:20:51.939Z,98661.84
2022-09-17T17:23:19.274Z,98653.75
2022-09-17T17:25:46.897Z,98662.78
2022-09-17T17:28:15.011Z,98670.59
2022-09-17T17:30:47.264Z,98671.19
2022-09-17T17:33:14.877Z,98671.84
2022-09-17T17:35:42.260Z,98684.97
2022-09-17T17:38:09.592Z,98681.72
2022-09-17T17:40:37.276Z,98684.28
2022-09-17T17:43:04.635Z,98680.59
2022-09-17T17:45:31.958Z,98680.81
2022-09-17T17:47:59.642Z,98682.53
2022-09-17T17:50:26.980Z,98686.31
2022-09-17T17:52:55.096Z,98704.22
2022-09-17T17:55:22.788Z,98719.69
2022-09-17T17:58:01.202Z,98724.56
2022-09-17T18:00:29.400Z,98729.94
2022-09-17T18:02:57.068Z,98723.47
2022-09-17T18:05:24.473Z,98733.66
2022-09-17T18:07:51.816Z,98735.28
2022-09-17T18:10:19.789Z,98743.00
2022-09-17T18:12:50.608Z,98746.56
2022-09-17T18:15:18.048Z,98748.69
2022-09-17T18:17:48.025Z,98749.03
2022-09-17T18:20:15.738Z,98740.75
2022-09-17T18:22:43.100Z,98733.72
2022-09-17T18:25:10.768Z,98734.25
2022-09-17T18:27:38.111Z,98742.16
2022-09-17T18:30:06.002Z,98740.41
2022-09-17T18:32:33.627Z,98741.09
2022-09-17T18:35:01.207Z,98743.97
2022-09-17T18:37:29.091Z,98738.78
2022-09-17T18:39:59.067Z,98743.63
2022-09-17T18:42:27.315Z,98747.44
2022-09-17T18:44:54.914Z,98750.22
2022-09-17T18:47:22.716Z,98738.88
2022-09-17T18:49:50.076Z,98740.81
2022-09-17T18:52:17.413Z,98745.88
2022-09-17T18:54:46.045Z,98741.91
2022-09-17T18:57:13.455Z,98736.47
2022-09-17T18:59:40.861Z,98736.31
2022-09-17T19:02:11.952Z,98730.59
2022-09-17T19:04:39.364Z,98720.16
2022-09-17T19:07:07.023Z,98726.19
2022-09-17T19:09:34.641Z,98729.38
2022-09-17T19:12:02.336Z,98730.84
2022-09-17T19:14:29.669Z,98737.88
2022-09-17T19:16:57.319Z,98734.03
2022-09-17T19:19:24.640Z,98739.44
2022-09-17T19:21:51.985Z,98750.09
2022-09-17T19:24:19.622Z,98762.84
2022-09-17T19:26:50.798Z,98765.25
2022-09-17T19:29:18.325Z,98765.56
2022-09-17T19:31:45.997Z,98762.19
2022-09-17T19:34:13.356Z,98764.13
2022-09-17T19:36:40.686Z,98768.94
2022-09-17T19:39:08.318Z,98768.84
2022-09-17T19:41:36.306Z,98770.56
2022-09-17T19:44:03.797Z,98769.88
2022-09-17T19:46:32.375Z,98767.81
2022-09-17T19:49:01.029Z,98770.50
2022-09-17T19:51:32.047Z,98768.38
2022-09-17T19:53:59.673Z,98773.16
2022-09-17T19:56:27.903Z,98766.66
2022-09-17T19:58:55.344Z,98768.78
2022-09-17T20:01:23.050Z,98782.00
2022-09-17T20:03:50.646Z,98774.78
2022-09-17T20:06:20.755Z,98775.63
2022-09-17T20:08:51.915Z,98774.16
2022-09-17T20:11:21.073Z,98767.38
2022-09-17T20:13:48.897Z,98771.66
2022-09-17T20:16:19.344Z,98767.44
2022-09-17T20:18:48.084Z,98760.59
2022-09-17T20:21:20.897Z,98767.03
2022-09-17T20:23:49.270Z,98775.50
2022-09-17T20:26:17.022Z,98768.78
2022-09-17T20:28:44.522Z,98776.25
2022-09-17T20:31:13.540Z,98781.25
2022-09-17T20:33:41.708Z,98787.09
2022-09-17T20:36:12.986Z,98787.28
2022-09-17T20:41:29.060Z,98791.28
2022-09-17T20:43:56.683Z,98786.81
2022-09-17T20:46:28.992Z,98797.19
2022-09-17T20:48:58.462Z,98800.50
2022-09-17T20:51:28.262Z,98804.09
2022-09-17T20:53:57.322Z,98800.59
2022-09-17T20:56:31.406Z,98794.59
2022-09-17T20:59:07.869Z,98799.19
2022-09-17T21:01:37.544Z,98809.78
2022-09-17T21:04:07.140Z,98804.50
2022-09-17T21:06:41.083Z,98794.59
2022-09-17T21:09:15.517Z,98793.38
2022-09-17T21:11:47.071Z,98800.31
2022-09-17T21:14:15.911Z,98808.62
2022-09-17T21:16:44.772Z,98799.44
2022-09-17T21:19:13.404Z,98804.97
2022-09-17T21:21:40.754Z,98809.41
2022-09-17T21:24:10.183Z,98808.03
2022-09-17T21:26:37.828Z,98815.06
2022-09-17T21:29:05.362Z,98807.97
2022-09-17T21:31:34.707Z,98818.19
2022-09-17T21:34:07.681Z,98823.31
2022-09-17T21:36:37.314Z,98822.19
2022-09-17T21:39:14.043Z,98825.44
2022-09-17T21:41:45.535Z,98821.94
2022-09-17T21:44:13.278Z,98829.59
2022-09-17T21:46:41.566Z,98830.09
2022-09-17T21:49:09.495Z,98821.69
2022-09-17T21:51:42.041Z,98826.69
2022-09-17T21:54:12.098Z,98827.16
2022-09-17T21:56:39.484Z,98832.41
2022-09-17T21:59:08.722Z,98840.41
2022-09-17T22:01:42.151Z,98848.84
2022-09-17T22:04:12.582Z,98856.91
2022-09-17T22:06:40.861Z,98859.06
2022-09-17T22:09:14.528Z,98842.81
2022-09-17T22:11:42.588Z,98856.09
2022-09-17T22:14:15.688Z,98853.13
2022-09-17T22:16:45.173Z,98866.16
2022-09-17T22:19:14.701Z,98854.97
2022-09-17T22:21:47.522Z,98852.72
2022-09-17T22:24:16.203Z,98848.75
2022-09-17T22:26:46.092Z,98854.91
2022-09-17T22:29:18.984Z,98853.28
2022-09-17T22:31:47.245Z,98856.06
2022-09-17T22:34:20.655Z,98856.94
2022-09-17T22:36:48.799Z,98866.72
2022-09-17T22:39:19.056Z,98871.19
2022-09-17T22:41:47.035Z,98866.06
2022-09-17T22:44:17.668Z,98869.09
2022-09-17T22:46:46.706Z,98869.38
2022-09-17T22:49:14.970Z,98883.16
2022-09-17T22:51:43.581Z,98886.47
2022-09-17T22:54:12.909Z,98891.47
2022-09-17T22:56:40.850Z,98886.25
2022-09-17T22:59:08.584Z,98887.03
2022-09-17T23:01:36.602Z,98886.16
2022-09-17T23:04:05.159Z,98882.81
2022-09-17T23:06:35.230Z,98879.44
2022-09-17T23:09:02.771Z,98883.97
2022-09-17T23:11:39.212Z,98884.41
2022-09-17T23:14:09.567Z,98886.03
2022-09-17T23:16:39.746Z,98880.41
2022-09-17T23:19:07.649Z,98879.22
2022-09-17T23:21:34.996Z,98887.59
2022-09-17T23:24:03.632Z,98888.03
2022-09-17T23:26:31.485Z,98884.06
2022-09-17T23:29:04.661Z,98883.03
2022-09-17T23:31:35.155Z,98883.34
2022-09-17T23:34:04.081Z,98883.31
2022-09-17T23:36:33.920Z,98889.69
2022-09-17T23:39:04.531Z,98893.97
2022-09-17T23:41:34.345Z,98888.00
2022-09-17T23:44:04.790Z,98895.13
2022-09-17T23:46:33.634Z,98890.88
2022-09-17T23:49:01.792Z,98884.44
2022-09-17T23:51:31.032Z,98881.94
2022-09-17T23:53:59.365Z,98886.41
2022-09-17T23:56:27.799Z,98888.59
2022-09-17T23:58:56.399Z,98886.13
